Time;durP1;ratioP1;P1;durP2;ratioP2;P2;SDS_P1;SDS_P2;PMS_P1;PMS_P2;Temp;Humidity;BMP_temperature;BMP_pressure;BME280_temperature;BME280_humidity;BME280_pressure;Samples;Min_cycle;Max_cycle;Signal;HPM_P1;HPM_P2
2021/06/20 00:00:11;;;;;;;10.30;7.73;;;26.10;47.50;;;;;;5134712;27;38797;-82
2021/06/20 00:02:38;;;;;;;8.90;8.10;;;26.30;46.30;;;;;;5124606;27;37725;-82
2021/06/20 00:05:07;;;;;;;9.07;7.87;;;26.50;46.40;;;;;;5137611;27;37187;-84
2021/06/20 00:07:36;;;;;;;9.30;8.10;;;26.60;45.20;;;;;;5137432;27;40290;-77
2021/06/20 00:10:08;;;;;;;8.10;7.27;;;26.60;44.80;;;;;;5124956;27;39832;-81
2021/06/20 00:12:40;;;;;;;9.17;8.37;;;26.60;45.00;;;;;;5148313;27;37967;-82
2021/06/20 00:15:11;;;;;;;8.47;7.63;;;26.60;44.70;;;;;;5116956;27;36774;-79
2021/06/20 00:17:41;;;;;;;8.63;7.90;;;26.70;44.20;;;;;;5116935;27;39307;-76
2021/06/20 00:20:11;;;;;;;8.30;7.50;;;26.70;43.80;;;;;;5126714;27;38575;-76
2021/06/20 00:22:38;;;;;;;7.80;7.00;;;26.60;44.20;;;;;;5131323;27;37614;-75
2021/06/20 00:25:08;;;;;;;8.77;8.07;;;26.90;43.40;;;;;;5132548;27;37416;-75
2021/06/20 00:27:36;;;;;;;8.10;7.40;;;27.20;43.00;;;;;;5117878;27;40405;-75
2021/06/20 00:30:06;;;;;;;7.60;6.90;;;27.60;42.20;;;;;;5119372;27;38954;-75
2021/06/20 00:32:34;;;;;;;8.40;7.60;;;27.90;42.00;;;;;;5126792;27;38562;-77
2021/06/20 00:35:01;;;;;;;8.70;7.80;;;27.90;42.00;;;;;;5129869;27;35963;-74
2021/06/20 00:37:29;;;;;;;11.50;9.57;;;28.20;42.30;;;;;;5135078;27;39457;-75
2021/06/20 00:39:56;;;;;;;8.90;8.00;;;28.10;43.00;;;;;;5135797;27;38961;-76
2021/06/20 00:42:24;;;;;;;9.33;8.37;;;28.20;43.00;;;;;;5121625;27;37408;-76
2021/06/20 00:44:54;;;;;;;9.10;8.30;;;28.20;43.50;;;;;;5135338;27;39024;-76
2021/06/20 00:47:23;;;;;;;9.47;8.60;;;28.10;43.50;;;;;;5131132;27;38334;-76
2021/06/20 00:49:53;;;;;;;9.87;8.90;;;28.20;43.80;;;;;;5122627;27;38686;-76
2021/06/20 00:52:21;;;;;;;9.83;8.80;;;28.00;44.60;;;;;;5135272;27;37649;-76
2021/06/20 00:54:48;;;;;;;11.43;10.03;;;28.00;44.50;;;;;;5135537;27;38133;-75
2021/06/20 00:57:17;;;;;;;10.20;9.20;;;28.00;44.40;;;;;;5120789;27;39621;-76
2021/06/20 00:59:45;;;;;;;11.60;9.40;;;27.90;44.80;;;;;;5128710;27;39215;-75
2021/06/20 01:02:17;;;;;;;9.30;8.50;;;27.80;44.90;;;;;;5115129;27;37446;-75
2021/06/20 01:04:49;;;;;;;10.00;9.20;;;27.80;45.20;;;;;;5132921;27;37351;-75
2021/06/20 01:07:19;;;;;;;9.87;9.07;;;27.90;45.50;;;;;;5133992;27;38595;-75
2021/06/20 01:09:47;;;;;;;10.47;9.47;;;27.90;44.70;;;;;;5131853;27;38606;-75
2021/06/20 01:12:16;;;;;;;10.50;9.50;;;27.90;44.80;;;;;;5123248;27;37451;-75
2021/06/20 01:14:45;;;;;;;11.33;9.53;;;27.90;45.50;;;;;;5133747;27;35862;-75
2021/06/20 01:17:13;;;;;;;10.57;9.00;;;27.90;45.90;;;;;;5129892;27;39294;-75
2021/06/20 01:19:41;;;;;;;9.40;8.50;;;27.60;46.10;;;;;;5128029;27;39085;-76
2021/06/20 01:22:22;;;;;;;9.80;8.77;;;27.50;46.00;;;;;;5132267;27;38331;-76
2021/06/20 01:24:52;;;;;;;8.77;8.07;;;27.50;45.80;;;;;;5125513;27;36049;-75
2021/06/20 01:27:25;;;;;;;10.40;8.83;;;27.60;45.60;;;;;;5126420;27;39489;-75
2021/06/20 01:29:52;;;;;;;12.67;8.63;;;27.50;45.10;;;;;;5125845;27;38476;-75
2021/06/20 01:32:20;;;;;;;8.57;7.83;;;27.40;45.30;;;;;;5120168;27;37597;-75
2021/06/20 01:34:48;;;;;;;10.97;8.87;;;27.50;45.30;;;;;;5123888;27;37120;-74
2021/06/20 01:37:17;;;;;;;9.60;8.70;;;27.50;45.60;;;;;;5128532;27;39705;-74
2021/06/20 01:39:47;;;;;;;10.13;9.20;;;27.60;45.40;;;;;;5123937;27;39057;-75
2021/06/20 01:42:15;;;;;;;9.93;8.90;;;27.40;45.50;;;;;;5119921;27;37689;-75
2021/06/20 01:44:51;;;;;;;11.30;8.90;;;27.50;45.70;;;;;;5126120;27;38255;-75
2021/06/20 01:47:19;;;;;;;10.27;9.40;;;27.30;45.90;;;;;;5130510;27;40443;-75
2021/06/20 01:49:46;;;;;;;9.93;8.20;;;27.40;45.80;;;;;;5134669;27;39034;-75
2021/06/20 01:52:19;;;;;;;11.73;8.77;;;27.40;45.00;;;;;;5118730;27;37117;-75
2021/06/20 01:54:52;;;;;;;10.57;7.23;;;27.50;44.30;;;;;;5125805;27;37192;-74
2021/06/20 01:57:21;;;;;;;11.90;8.20;;;27.70;43.80;;;;;;5127197;27;38433;-74
2021/06/20 01:59:50;;;;;;;11.17;7.43;;;27.90;43.30;;;;;;5120521;27;39633;-75
2021/06/20 02:02:17;;;;;;;12.70;9.37;;;27.90;43.10;;;;;;5131710;27;37506;-74
2021/06/20 02:04:47;;;;;;;14.00;7.43;;;27.90;42.60;;;;;;5119272;27;37379;-74
2021/06/20 02:07:15;;;;;;;12.40;8.40;;;28.00;42.90;;;;;;5123572;27;39583;-74
2021/06/20 02:09:43;;;;;;;16.77;7.97;;;27.90;43.00;;;;;;5127967;27;39926;-75
2021/06/20 02:12:14;;;;;;;14.93;7.80;;;27.90;42.10;;;;;;5122375;27;38637;-74
2021/06/20 02:14:42;;;;;;;13.40;9.87;;;27.90;42.90;;;;;;5131252;27;36952;-74
2021/06/20 02:17:24;;;;;;;14.47;7.63;;;28.00;39.70;;;;;;5131266;27;39822;-74
2021/06/20 02:19:54;;;;;;;13.60;7.47;;;28.00;42.80;;;;;;5128407;27;40155;-74
2021/06/20 02:22:22;;;;;;;16.00;6.80;;;28.00;42.50;;;;;;5125124;27;37260;-74
2021/06/20 02:24:50;;;;;;;14.57;8.30;;;28.00;42.90;;;;;;5126695;27;36053;-74
2021/06/20 02:27:19;;;;;;;15.90;9.10;;;27.90;41.50;;;;;;5120526;27;40346;-75
2021/06/20 02:29:49;;;;;;;15.97;8.57;;;27.90;40.20;;;;;;5118402;27;38876;-74
2021/06/20 02:32:17;;;;;;;17.50;7.40;;;27.90;42.50;;;;;;5119664;27;37389;-75
2021/06/20 02:34:46;;;;;;;11.03;6.90;;;27.90;42.60;;;;;;5132273;27;36979;-74
2021/06/20 02:37:14;;;;;;;16.35;8.50;;;27.90;41.10;;;;;;5133310;27;39537;-75
2021/06/20 02:39:42;;;;;;;12.40;6.67;;;28.00;42.10;;;;;;5122196;27;39243;-74
2021/06/20 02:42:11;;;;;;;23.53;8.20;;;28.00;42.40;;;;;;5127995;27;37431;-73
2021/06/20 02:44:40;;;;;;;14.00;7.27;;;27.80;42.80;;;;;;5123424;27;37583;-73
2021/06/20 02:47:11;;;;;;;19.97;8.47;;;27.50;43.40;;;;;;5116117;27;39298;-73
2021/06/20 02:49:39;;;;;;;17.23;7.03;;;27.20;44.10;;;;;;5133477;27;38780;-73
2021/06/20 02:52:08;;;;;;;17.03;7.23;;;26.90;45.00;;;;;;5119079;27;37505;-73
2021/06/20 02:54:36;;;;;;;16.53;7.20;;;26.60;45.80;;;;;;5131677;27;35960;-73
2021/06/20 02:57:05;;;;;;;19.87;7.30;;;26.40;46.30;;;;;;5131693;27;39901;-73
2021/06/20 02:59:32;;;;;;;13.80;8.00;;;26.10;46.70;;;;;;5119853;27;38848;-73
2021/06/20 03:02:01;;;;;;;16.87;8.30;;;26.00;47.20;;;;;;5127652;27;37636;-74
2021/06/20 03:04:29;;;;;;;16.83;7.70;;;25.90;47.30;;;;;;5131538;27;37519;-74
2021/06/20 03:06:56;;;;;;;13.60;7.73;;;25.80;47.60;;;;;;5120347;27;39486;-73
2021/06/20 03:09:23;;;;;;;18.40;7.23;;;25.70;48.00;;;;;;5132943;27;39091;-71
2021/06/20 03:11:51;;;;;;;12.20;8.27;;;25.60;48.10;;;;;;5118773;27;37500;-72
2021/06/20 03:14:18;;;;;;;20.90;6.90;;;25.50;48.30;;;;;;5133128;27;37234;-72
2021/06/20 03:16:49;;;;;;;19.23;7.90;;;25.50;48.40;;;;;;5132894;27;39235;-71
2021/06/20 03:19:19;;;;;;;14.80;6.93;;;25.50;48.40;;;;;;5128643;27;39425;-72
2021/06/20 03:21:46;;;;;;;14.30;7.10;;;25.50;48.70;;;;;;5129166;27;38542;-72
2021/06/20 03:24:15;;;;;;;13.67;6.87;;;25.50;48.70;;;;;;5121785;27;37109;-72
2021/06/20 03:26:43;;;;;;;10.50;6.33;;;25.40;48.90;;;;;;5133240;27;39565;-74
2021/06/20 03:29:10;;;;;;;17.33;8.10;;;25.40;48.80;;;;;;5130090;27;38727;-74
2021/06/20 03:31:38;;;;;;;21.80;8.10;;;25.40;49.00;;;;;;5132963;27;37818;-74
2021/06/20 03:34:05;;;;;;;16.93;7.80;;;25.40;49.00;;;;;;5126809;27;38164;-74
2021/06/20 03:36:34;;;;;;;13.40;6.67;;;25.40;49.20;;;;;;5125453;27;39303;-74
2021/06/20 03:39:01;;;;;;;17.40;7.80;;;25.40;49.20;;;;;;5117680;27;39133;-75
2021/06/20 03:41:29;;;;;;;15.97;6.90;;;25.40;49.20;;;;;;5122226;27;37810;-72
2021/06/20 03:43:57;;;;;;;17.27;6.80;;;25.40;49.10;;;;;;5126951;27;37145;-73
2021/06/20 03:46:24;;;;;;;12.33;6.70;;;25.40;49.20;;;;;;5122790;27;40099;-72
2021/06/20 03:48:52;;;;;;;16.10;8.43;;;25.40;49.10;;;;;;5118710;27;38984;-73
2021/06/20 03:51:19;;;;;;;18.10;9.50;;;25.40;49.10;;;;;;5124581;27;38497;-70
2021/06/20 03:53:48;;;;;;;16.40;9.07;;;25.40;48.80;;;;;;5124339;27;37860;-73
2021/06/20 03:56:16;;;;;;;14.17;6.33;;;25.50;48.70;;;;;;5132805;27;38399;-75
2021/06/20 03:58:44;;;;;;;18.77;7.90;;;25.50;48.70;;;;;;5132816;27;37926;-74
2021/06/20 04:01:11;;;;;;;18.93;7.77;;;25.50;48.80;;;;;;5134023;27;38308;-74
2021/06/20 04:03:39;;;;;;;18.43;7.40;;;25.60;48.70;;;;;;5133696;27;37768;-73
2021/06/20 04:06:06;;;;;;;17.90;8.03;;;25.60;48.60;;;;;;5133959;27;40650;-74
2021/06/20 04:08:34;;;;;;;18.40;6.00;;;25.60;48.40;;;;;;5132261;27;37880;-74
2021/06/20 04:11:03;;;;;;;20.20;7.70;;;25.70;48.40;;;;;;5133566;27;37619;-74
2021/06/20 04:13:30;;;;;;;17.73;6.50;;;25.80;48.40;;;;;;5133252;27;36815;-74
2021/06/20 04:16:00;;;;;;;14.73;7.00;;;25.80;48.70;;;;;;5132510;27;38327;-74
2021/06/20 04:18:28;;;;;;;11.00;6.47;;;25.80;48.20;;;;;;5134137;27;39886;-73
2021/06/20 04:20:56;;;;;;;13.63;6.07;;;25.90;48.30;;;;;;5137230;27;38364;-73
2021/06/20 04:23:23;;;;;;;14.07;7.33;;;26.00;48.10;;;;;;5135805;27;35933;-73
2021/06/20 04:25:51;;;;;;;13.83;6.20;;;25.90;47.90;;;;;;5137468;27;39769;-73
2021/06/20 04:28:21;;;;;;;13.00;5.87;;;25.90;47.70;;;;;;5135305;27;38981;-74
2021/06/20 04:30:53;;;;;;;14.13;6.60;;;25.90;48.00;;;;;;5137211;27;39233;-74
2021/06/20 04:33:21;;;;;;;15.17;6.73;;;25.90;48.00;;;;;;5135770;27;35756;-73
2021/06/20 04:35:49;;;;;;;16.13;6.77;;;26.00;47.90;;;;;;5136893;27;39581;-74
2021/06/20 04:38:16;;;;;;;19.27;6.20;;;26.00;47.90;;;;;;5137000;27;38891;-75
2021/06/20 04:40:44;;;;;;;15.87;6.20;;;26.10;47.90;;;;;;5135729;27;36519;-75
2021/06/20 04:43:23;;;;;;;14.27;6.40;;;26.10;47.90;;;;;;5134768;27;37372;-75
2021/06/20 04:45:52;;;;;;;17.23;6.33;;;26.20;47.30;;;;;;5114941;28;40664;-75
2021/06/20 04:48:20;;;;;;;9.07;4.63;;;26.20;46.60;;;;;;5114939;28;37367;-75
2021/06/20 04:50:47;;;;;;;12.00;4.90;;;26.20;45.70;;;;;;5116512;28;38462;-74
2021/06/20 04:53:16;;;;;;;10.87;4.57;;;26.30;45.60;;;;;;5116513;28;37604;-75
2021/06/20 04:55:46;;;;;;;16.30;5.47;;;26.30;44.60;;;;;;5114800;28;38675;-75
2021/06/20 04:58:13;;;;;;;16.03;5.10;;;26.40;44.30;;;;;;5114362;28;39228;-75
2021/06/20 05:00:41;;;;;;;12.17;4.40;;;26.50;43.90;;;;;;5116210;28;38499;-75
2021/06/20 05:03:10;;;;;;;11.83;4.43;;;26.70;43.60;;;;;;5116242;28;37907;-75
2021/06/20 05:05:37;;;;;;;9.20;3.50;;;26.70;43.60;;;;;;5115770;28;39845;-75
2021/06/20 05:08:05;;;;;;;11.97;4.07;;;26.70;43.50;;;;;;5116279;28;39111;-75
2021/06/20 05:10:33;;;;;;;8.97;4.20;;;26.70;43.40;;;;;;5115618;28;37879;-74
2021/06/20 05:13:00;;;;;;;9.60;3.40;;;26.60;43.70;;;;;;5115476;28;37201;-75
2021/06/20 05:15:28;;;;;;;10.63;3.80;;;26.50;43.80;;;;;;5114243;28;39968;-75
2021/06/20 05:17:58;;;;;;;15.03;4.47;;;26.50;44.50;;;;;;5115545;28;38915;-75
2021/06/20 05:20:27;;;;;;;13.20;5.70;;;26.50;44.00;;;;;;5131031;27;37170;-73
2021/06/20 05:22:54;;;;;;;12.53;3.67;;;26.50;44.10;;;;;;5136184;27;37896;-74
2021/06/20 05:25:22;;;;;;;11.77;4.33;;;26.50;44.20;;;;;;5136283;27;39845;-73
2021/06/20 05:27:49;;;;;;;10.30;4.17;;;26.50;44.20;;;;;;5136142;27;39752;-73
2021/06/20 05:30:18;;;;;;;14.80;4.00;;;26.50;43.90;;;;;;5135158;27;37588;-75
2021/06/20 05:32:45;;;;;;;10.33;3.80;;;26.50;44.20;;;;;;5136010;27;37735;-75
2021/06/20 05:35:13;;;;;;;11.80;4.00;;;26.60;44.20;;;;;;5135762;27;39212;-73
2021/06/20 05:37:42;;;;;;;14.60;4.67;;;26.60;44.10;;;;;;5136182;27;39723;-74
2021/06/20 05:40:10;;;;;;;12.93;4.23;;;26.80;44.10;;;;;;5134703;27;36156;-74
2021/06/20 05:42:40;;;;;;;8.70;4.20;;;26.90;43.70;;;;;;5134703;27;37576;-74
2021/06/20 05:45:09;;;;;;;9.40;3.83;;;27.00;43.60;;;;;;5134765;27;39671;-73
2021/06/20 05:47:36;;;;;;;11.50;4.10;;;27.20;43.30;;;;;;5135877;27;39595;-74
2021/06/20 05:50:04;;;;;;;6.37;3.50;;;27.50;42.80;;;;;;5134559;27;37366;-73
2021/06/20 05:52:34;;;;;;;9.90;3.83;;;27.80;42.00;;;;;;5135227;27;37139;-74
2021/06/20 05:55:04;;;;;;;11.20;3.77;;;28.00;42.10;;;;;;5135894;27;40320;-74
2021/06/20 05:57:32;;;;;;;8.97;3.70;;;28.10;41.30;;;;;;5134182;27;37718;-74
2021/06/20 05:59:59;;;;;;;14.73;4.10;;;28.10;41.60;;;;;;5134795;27;38541;-75
2021/06/20 06:02:27;;;;;;;9.57;3.87;;;28.30;41.50;;;;;;5134517;27;35644;-75
2021/06/20 06:04:54;;;;;;;12.27;3.53;;;28.40;41.10;;;;;;5134156;27;38534;-75
2021/06/20 06:07:22;;;;;;;10.30;3.43;;;28.60;40.30;;;;;;5133912;27;37242;-75
2021/06/20 06:09:50;;;;;;;14.70;4.20;;;28.80;40.30;;;;;;5134195;27;36679;-74
2021/06/20 06:12:23;;;;;;;7.90;3.67;;;29.00;39.80;;;;;;5135406;27;36915;-75
2021/06/20 06:14:53;;;;;;;6.80;3.20;;;29.30;38.60;;;;;;5133308;27;38414;-74
2021/06/20 06:17:21;;;;;;;9.77;3.87;;;29.60;37.90;;;;;;5130418;27;38804;-74
2021/06/20 06:19:49;;;;;;;14.73;3.50;;;29.80;37.70;;;;;;5114743;27;37975;-74
2021/06/20 06:22:17;;;;;;;8.10;3.83;;;30.10;37.10;;;;;;5127805;27;37908;-74
2021/06/20 06:24:45;;;;;;;12.27;3.47;;;30.40;36.90;;;;;;5114496;27;39571;-74
2021/06/20 06:27:13;;;;;;;14.33;3.30;;;30.90;36.00;;;;;;5114781;27;40064;-74
2021/06/20 06:29:42;;;;;;;14.57;5.10;;;31.90;35.30;;;;;;5114075;27;37911;-72
2021/06/20 06:32:10;;;;;;;9.63;3.17;;;33.00;33.20;;;;;;5114291;27;36634;-75
2021/06/20 06:34:38;;;;;;;11.77;4.30;;;33.20;32.00;;;;;;5126058;27;40428;-75
2021/06/20 06:37:06;;;;;;;10.37;3.67;;;33.40;31.90;;;;;;5120929;27;39387;-74
2021/06/20 06:39:34;;;;;;;8.13;2.90;;;33.70;31.20;;;;;;5130429;27;37568;-74
2021/06/20 06:42:02;;;;;;;9.23;3.20;;;33.90;30.80;;;;;;5116939;27;37569;-74
2021/06/20 06:44:29;;;;;;;11.50;4.03;;;34.30;30.50;;;;;;5128965;27;41101;-74
2021/06/20 06:46:58;;;;;;;8.13;3.20;;;35.30;30.20;;;;;;5127778;27;39806;-74
2021/06/20 06:49:26;;;;;;;10.10;3.67;;;36.20;28.80;;;;;;5127092;27;37249;-74
2021/06/20 06:51:53;;;;;;;9.50;3.60;;;36.00;28.10;;;;;;5133793;27;37128;-74
2021/06/20 06:54:21;;;;;;;8.40;3.90;;;35.60;28.10;;;;;;5118625;27;39503;-74
2021/06/20 06:56:48;;;;;;;10.33;2.93;;;34.90;28.70;;;;;;5117844;27;39910;-74
2021/06/20 06:59:16;;;;;;;8.00;3.33;;;34.00;29.10;;;;;;5127086;27;38251;-74
2021/06/20 07:01:44;;;;;;;7.87;2.80;;;33.40;29.80;;;;;;5128599;27;37041;-74
2021/06/20 07:04:12;;;;;;;6.07;2.73;;;33.20;30.00;;;;;;5133419;27;40297;-74
2021/06/20 07:06:40;;;;;;;10.47;3.40;;;33.20;29.90;;;;;;5129562;27;38781;-74
2021/06/20 07:09:07;;;;;;;7.67;2.57;;;33.10;30.00;;;;;;5119231;27;36834;-74
2021/06/20 07:11:36;;;;;;;6.83;2.40;;;32.70;30.30;;;;;;5129035;27;36933;-74
2021/06/20 07:14:04;;;;;;;8.00;2.97;;;32.40;30.90;;;;;;5130995;27;38296;-74
2021/06/20 07:16:32;;;;;;;9.57;2.80;;;32.10;31.20;;;;;;5116602;27;39286;-73
2021/06/20 07:18:59;;;;;;;8.90;2.57;;;31.90;31.40;;;;;;5122625;27;37737;-73
2021/06/20 07:21:28;;;;;;;9.77;2.40;;;31.60;31.50;;;;;;5130895;27;35781;-74
2021/06/20 07:23:56;;;;;;;6.07;2.50;;;31.80;31.40;;;;;;5132374;27;39534;-74
2021/06/20 07:26:31;;;;;;;5.27;2.30;;;32.20;30.70;;;;;;5138704;27;38983;-83
2021/06/20 07:29:05;;;;;;;6.20;2.40;;;32.40;30.00;;;;;;5141092;27;38069;-82
2021/06/20 07:31:39;;;;;;;5.30;2.17;;;32.60;30.40;;;;;;5151058;27;36240;-81
2021/06/20 07:34:10;;;;;;;9.00;3.33;;;32.60;30.00;;;;;;5132730;27;38547;-81
2021/06/20 07:36:40;;;;;;;7.60;2.87;;;32.60;30.40;;;;;;5133725;27;39400;-80
2021/06/20 07:39:08;;;;;;;5.17;2.30;;;32.60;30.00;;;;;;5131507;27;38113;-79
2021/06/20 07:41:35;;;;;;;5.97;2.40;;;32.70;29.40;;;;;;5133402;27;37765;-79
2021/06/20 07:44:03;;;;;;;8.83;2.50;;;32.70;29.10;;;;;;5131410;27;39843;-81
2021/06/20 07:46:31;;;;;;;9.17;2.10;;;32.50;29.70;;;;;;5132242;27;38724;-80
2021/06/20 07:48:58;;;;;;;6.57;3.07;;;32.10;29.50;;;;;;5131033;27;37454;-80
2021/06/20 07:51:26;;;;;;;6.77;2.23;;;32.00;30.50;;;;;;5130606;27;37963;-82
2021/06/20 07:53:55;;;;;;;5.83;2.37;;;31.70;30.00;;;;;;5134293;27;39407;-78
2021/06/20 07:56:22;;;;;;;8.50;2.40;;;31.70;30.30;;;;;;5132263;27;36909;-78
2021/06/20 07:58:51;;;;;;;5.50;2.40;;;31.80;30.00;;;;;;5134758;27;36501;-79
2021/06/20 08:01:18;;;;;;;4.67;1.93;;;31.80;29.60;;;;;;5138211;27;37692;-79
2021/06/20 08:03:46;;;;;;;4.07;1.90;;;31.80;29.40;;;;;;5136781;27;40357;-79
2021/06/20 08:06:17;;;;;;;4.30;2.23;;;31.70;29.20;;;;;;5128594;27;38986;-78
2021/06/20 08:08:45;;;;;;;2.63;1.53;;;31.40;29.00;;;;;;5118274;27;36496;-79
2021/06/20 08:11:14;;;;;;;4.07;2.03;;;31.20;29.50;;;;;;5135117;27;36632;-78
2021/06/20 08:13:42;;;;;;;4.77;1.90;;;31.10;30.10;;;;;;5121781;27;40565;-78
2021/06/20 08:16:12;;;;;;;5.57;2.17;;;30.90;30.10;;;;;;5135062;27;39009;-78
2021/06/20 08:18:40;;;;;;;7.17;2.43;;;30.90;29.60;;;;;;5136720;27;36230;-77
2021/06/20 08:21:07;;;;;;;3.20;1.50;;;30.80;30.40;;;;;;5138366;27;38098;-77
2021/06/20 08:23:35;;;;;;;6.20;2.00;;;30.70;30.90;;;;;;5135885;27;38704;-77
2021/06/20 08:26:02;;;;;;;5.10;2.20;;;30.70;31.00;;;;;;5133935;27;38521;-77
2021/06/20 08:28:33;;;;;;;7.63;2.00;;;30.90;31.00;;;;;;5135653;27;38315;-77
2021/06/20 08:31:01;;;;;;;6.27;2.47;;;31.00;30.70;;;;;;5137559;27;36642;-80
2021/06/20 08:33:29;;;;;;;3.93;1.77;;;31.00;30.00;;;;;;5138679;27;40375;-78
2021/06/20 08:35:59;;;;;;;6.17;3.33;;;31.10;30.10;;;;;;5141602;27;38391;-78
2021/06/20 08:38:27;;;;;;;6.10;2.10;;;31.10;30.10;;;;;;5114060;27;37760;-78
2021/06/20 08:40:55;;;;;;;5.70;1.67;;;31.10;30.20;;;;;;5136560;27;37135;-78
2021/06/20 08:43:23;;;;;;;2.83;1.53;;;31.20;30.00;;;;;;5123257;27;39774;-79
2021/06/20 08:45:55;;;;;;;4.83;2.20;;;31.10;30.30;;;;;;5122485;27;39635;-78
2021/06/20 08:48:25;;;;;;;7.07;1.80;;;31.20;30.70;;;;;;5126212;27;36865;-79
2021/06/20 08:50:53;;;;;;;4.40;2.07;;;31.20;30.40;;;;;;5131557;27;37345;-83
2021/06/20 08:53:21;;;;;;;4.70;1.60;;;31.10;30.50;;;;;;5133861;27;39484;-83
2021/06/20 08:55:50;;;;;;;7.13;2.13;;;31.20;30.50;;;;;;5134521;27;38751;-83
2021/06/20 08:58:23;;;;;;;3.70;1.80;;;31.40;30.50;;;;;;5133839;27;37396;-83
2021/06/20 09:00:51;;;;;;;5.00;2.10;;;31.60;30.20;;;;;;5124472;27;37164;-84
2021/06/20 09:03:22;;;;;;;3.57;1.87;;;31.60;30.00;;;;;;5120124;27;40450;-83
2021/06/20 09:05:58;;;;;;;8.90;2.17;;;31.60;30.00;;;;;;5136412;27;37808;-83
2021/06/20 09:08:26;;;;;;;3.23;1.50;;;31.40;30.00;;;;;;5135651;27;37543;-83
2021/06/20 09:10:54;;;;;;;5.13;2.07;;;31.20;30.60;;;;;;5119430;27;38049;-82
2021/06/20 09:13:21;;;;;;;4.97;2.17;;;31.10;30.80;;;;;;5122727;27;40908;-84
2021/06/20 09:16:03;;;;;;;4.87;2.20;;;31.20;31.10;;;;;;5132820;27;38655;-84
2021/06/20 09:18:32;;;;;;;8.13;2.10;;;31.10;30.70;;;;;;5119714;27;36580;-83
2021/06/20 09:21:10;;;;;;;4.30;1.70;;;31.10;31.10;;;;;;5126422;27;38035;-82
2021/06/20 09:23:42;;;;;;;4.33;1.67;;;31.00;30.60;;;;;;5126643;27;38241;-83
2021/06/20 09:26:12;;;;;;;8.67;2.43;;;31.00;30.60;;;;;;5117842;27;39733;-83
2021/06/20 09:28:39;;;;;;;3.00;1.83;;;31.00;30.70;;;;;;5133967;27;36558;-83
2021/06/20 09:31:08;;;;;;;4.60;2.43;;;31.10;30.60;;;;;;5135261;27;38134;-83
2021/06/20 09:33:37;;;;;;;4.70;2.80;;;31.10;30.30;;;;;;5129909;27;40589;-83
2021/06/20 09:36:06;;;;;;;9.50;2.20;;;31.10;30.30;;;;;;5122791;27;39075;-83
2021/06/20 09:38:35;;;;;;;2.93;2.17;;;31.00;30.10;;;;;;5133706;27;36698;-84
2021/06/20 09:41:06;;;;;;;8.93;2.30;;;30.90;30.70;;;;;;5132701;27;37338;-84
2021/06/20 09:43:35;;;;;;;2.80;1.80;;;31.00;30.20;;;;;;5149371;27;38113;-84
2021/06/20 09:46:03;;;;;;;7.07;2.30;;;30.90;30.20;;;;;;5128010;27;39143;-83
2021/06/20 09:48:33;;;;;;;7.80;2.33;;;30.90;30.40;;;;;;5133889;27;37580;-83
2021/06/20 09:51:15;;;;;;;7.57;2.13;;;30.90;30.50;;;;;;5137193;27;38123;-84
2021/06/20 09:53:44;;;;;;;3.83;1.83;;;30.80;30.50;;;;;;5136220;27;39370;-84
2021/06/20 09:56:20;;;;;;;5.63;2.10;;;30.80;31.00;;;;;;5140743;27;38873;-84
2021/06/20 09:58:55;;;;;;;4.20;1.87;;;31.00;30.80;;;;;;5141425;27;39533;-85
2021/06/20 10:01:24;;;;;;;2.67;1.73;;;31.00;30.30;;;;;;5140966;27;36378;-84
2021/06/20 10:03:54;;;;;;;11.43;3.13;;;31.00;30.30;;;;;;5147497;27;38566;-85
2021/06/20 10:06:28;;;;;;;4.93;1.90;;;31.10;30.30;;;;;;5146045;27;39240;-84
2021/06/20 10:08:58;;;;;;;5.27;1.80;;;31.20;30.50;;;;;;5138365;27;37686;-84
2021/06/20 10:11:26;;;;;;;3.27;1.60;;;31.20;30.20;;;;;;5133766;27;36297;-83
2021/06/20 10:13:54;;;;;;;6.00;2.23;;;31.40;30.00;;;;;;5119697;27;40147;-84
2021/06/20 10:16:24;;;;;;;5.87;3.03;;;31.60;29.50;;;;;;5132463;27;38550;-84
2021/06/20 10:18:55;;;;;;;3.37;1.83;;;31.70;29.70;;;;;;5133414;27;38150;-84
2021/06/20 10:21:33;;;;;;;5.10;1.70;;;31.80;29.50;;;;;;5135438;27;35745;-84
2021/06/20 10:24:09;;;;;;;4.20;2.50;;;32.30;29.10;;;;;;5135204;27;40347;-84
2021/06/20 10:26:45;;;;;;;4.90;1.97;;;32.80;28.50;;;;;;5121446;27;38992;-85
2021/06/20 10:29:17;;;;;;;5.13;1.90;;;32.70;28.40;;;;;;5131364;27;37687;-83
2021/06/20 10:31:45;;;;;;;4.87;2.67;;;32.70;28.80;;;;;;5121054;27;36290;-84
2021/06/20 10:34:17;;;;;;;8.20;2.60;;;32.90;28.30;;;;;;5116145;27;38817;-84
2021/06/20 10:36:47;;;;;;;4.40;2.20;;;33.50;28.00;;;;;;5129636;27;37692;-84
2021/06/20 10:39:21;;;;;;;6.37;2.50;;;34.00;27.70;;;;;;5123582;27;36358;-86
2021/06/20 10:42:02;;;;;;;6.33;2.50;;;34.20;27.30;;;;;;5129862;27;37385;-82
2021/06/20 10:44:42;;;;;;;6.77;2.70;;;34.20;27.50;;;;;;5123931;27;40784;-82
2021/06/20 10:47:09;;;;;;;6.40;2.60;;;33.80;27.60;;;;;;5131876;27;39835;-83
2021/06/20 10:49:39;;;;;;;5.53;2.47;;;32.90;28.50;;;;;;5134124;27;36624;-84
2021/06/20 10:52:20;;;;;;;6.97;2.67;;;32.60;28.90;;;;;;5128266;27;37766;-84
2021/06/20 10:54:52;;;;;;;5.87;2.50;;;32.40;29.60;;;;;;5119826;27;39688;-85
2021/06/20 10:57:27;;;;;;;4.50;2.60;;;32.50;29.90;;;;;;5124489;27;38638;-84
2021/06/20 10:59:58;;;;;;;7.33;2.83;;;31.60;30.40;;;;;;5123261;27;36671;-83
2021/06/20 11:02:33;;;;;;;7.57;2.63;;;30.80;32.20;;;;;;5132112;27;36301;-83
2021/06/20 11:05:01;;;;;;;4.27;2.20;;;30.30;33.80;;;;;;5132757;27;39456;-84
2021/06/20 11:07:31;;;;;;;7.53;2.50;;;30.40;32.80;;;;;;5131435;27;38548;-85
2021/06/20 11:09:59;;;;;;;6.63;2.60;;;29.70;33.80;;;;;;5123179;27;38134;-84
2021/06/20 11:12:27;;;;;;;7.60;2.80;;;29.50;34.90;;;;;;5127482;27;38156;-83
2021/06/20 11:14:56;;;;;;;8.13;2.70;;;29.80;34.70;;;;;;5110126;28;38628;-83
2021/06/20 11:17:35;;;;;;;9.10;3.30;;;29.30;34.60;;;;;;5126132;27;40009;-84
2021/06/20 11:20:13;;;;;;;12.37;3.63;;;29.70;35.10;;;;;;5118438;27;37444;-84
2021/06/20 11:22:43;;;;;;;10.10;3.87;;;29.70;35.10;;;;;;5132254;27;36562;-83
2021/06/20 11:25:11;;;;;;;8.43;3.10;;;29.50;35.30;;;;;;5132249;27;39532;-83
2021/06/20 11:27:43;;;;;;;7.03;3.60;;;29.30;36.50;;;;;;5131644;27;38106;-83
2021/06/20 11:30:19;;;;;;;13.43;3.50;;;30.00;35.70;;;;;;5127173;27;36938;-83
2021/06/20 11:32:46;;;;;;;5.70;2.93;;;30.40;34.80;;;;;;5127510;27;37457;-84
2021/06/20 11:35:16;;;;;;;7.07;3.93;;;30.80;34.50;;;;;;5136244;27;40494;-84
2021/06/20 11:37:52;;;;;;;9.97;4.07;;;31.40;33.80;;;;;;5133569;27;39115;-83
2021/06/20 11:40:22;;;;;;;13.27;3.90;;;31.80;33.10;;;;;;5134346;27;37761;-83
2021/06/20 11:43:01;;;;;;;10.50;4.17;;;32.00;31.20;;;;;;5136670;27;35845;-82
2021/06/20 11:45:31;;;;;;;11.80;4.00;;;32.50;31.10;;;;;;5121975;27;39801;-84
2021/06/20 11:48:02;;;;;;;10.17;4.07;;;32.60;30.10;;;;;;5119680;27;39049;-83
2021/06/20 11:50:32;;;;;;;14.43;4.30;;;32.90;30.00;;;;;;5135940;27;37192;-83
2021/06/20 11:53:03;;;;;;;15.90;4.77;;;33.40;29.50;;;;;;5137841;27;38124;-83
2021/06/20 11:55:33;;;;;;;10.80;4.63;;;33.60;28.30;;;;;;5141369;27;39454;-82
2021/06/20 11:58:04;;;;;;;11.73;4.20;;;33.70;28.90;;;;;;5140240;27;38794;-82
2021/06/20 12:00:34;;;;;;;12.60;3.70;;;33.90;28.50;;;;;;5137595;27;37751;-84
2021/06/20 12:03:03;;;;;;;15.20;4.03;;;34.20;27.80;;;;;;5142683;27;38230;-87
2021/06/20 12:05:34;;;;;;;12.13;3.90;;;34.20;27.90;;;;;;5136744;27;39530;-78
2021/06/20 12:08:05;;;;;;;10.40;4.00;;;32.90;28.70;;;;;;5136738;27;38770;-79
2021/06/20 12:10:34;;;;;;;17.60;4.13;;;32.20;29.90;;;;;;5135261;27;37500;-78
2021/06/20 12:13:05;;;;;;;14.30;4.57;;;31.90;30.20;;;;;;5135997;27;37108;-78
2021/06/20 12:15:37;;;;;;;10.33;4.10;;;31.60;30.10;;;;;;5136613;27;40462;-80
2021/06/20 12:18:06;;;;;;;10.93;3.63;;;31.90;30.00;;;;;;5133782;27;39227;-80
2021/06/20 12:20:39;;;;;;;11.20;4.40;;;32.40;29.90;;;;;;5136806;27;38282;-81
2021/06/20 12:23:10;;;;;;;10.53;4.07;;;33.00;29.10;;;;;;5135707;27;38201;-79
2021/06/20 12:25:44;;;;;;;10.67;3.23;;;33.40;28.00;;;;;;5135084;27;38462;-78
2021/06/20 12:28:14;;;;;;;13.20;4.00;;;33.80;27.60;;;;;;5135112;27;38269;-82
2021/06/20 12:30:42;;;;;;;11.20;3.50;;;34.10;26.90;;;;;;5123204;27;38591;-82
2021/06/20 12:33:11;;;;;;;12.43;3.70;;;34.00;27.00;;;;;;5117008;28;37244;-84
2021/06/20 12:35:40;;;;;;;15.33;4.33;;;33.70;27.30;;;;;;5121021;27;39537;-84
2021/06/20 12:38:16;;;;;;;16.97;4.67;;;33.50;27.40;;;;;;5137486;27;38902;-82
2021/06/20 12:40:44;;;;;;;11.87;4.33;;;33.40;27.40;;;;;;5133531;27;38778;-81
2021/06/20 12:43:15;;;;;;;11.87;4.73;;;33.10;27.20;;;;;;5137180;27;37061;-80
2021/06/20 12:45:43;;;;;;;14.43;4.53;;;32.50;27.40;;;;;;5138136;27;39444;-82
2021/06/20 12:48:15;;;;;;;22.43;4.70;;;32.60;27.80;;;;;;5137341;27;39283;-82
2021/06/20 12:50:48;;;;;;;13.00;4.00;;;32.70;27.70;;;;;;5136562;27;38486;-83